createdAt,value
2023-05-05T00:00:11.779Z,95406.00
2023-05-05T00:01:11.885Z,95406.00
2023-05-05T00:02:11.959Z,95406.00
2023-05-05T00:03:12.066Z,95407.00
2023-05-05T00:04:12.171Z,95407.00
2023-05-05T00:05:12.116Z,95407.00
2023-05-05T00:06:12.228Z,95402.00
2023-05-05T00:07:12.272Z,95406.00
2023-05-05T00:08:12.368Z,95402.00
2023-05-05T00:09:12.415Z,95400.00
2023-05-05T00:10:12.510Z,95402.00
2023-05-05T00:11:12.576Z,95402.00
2023-05-05T00:12:12.665Z,95400.00
2023-05-05T00:13:12.879Z,95400.00
2023-05-05T00:14:12.820Z,95402.00
2023-05-05T00:15:12.893Z,95400.00
2023-05-05T00:16:12.957Z,95400.00
2023-05-05T00:17:13.204Z,95400.00
2023-05-05T00:18:13.098Z,95398.00
2023-05-05T00:19:13.205Z,95400.00
2023-05-05T00:20:13.258Z,95400.00
2023-05-05T00:21:13.348Z,95400.00
2023-05-05T00:22:13.406Z,95404.00
2023-05-05T00:23:13.475Z,95402.00
2023-05-05T00:24:13.561Z,95402.00
2023-05-05T00:25:13.642Z,95404.00
2023-05-05T00:26:13.736Z,95404.00
2023-05-05T00:27:13.776Z,95402.00
2023-05-05T00:28:13.863Z,95404.00
2023-05-05T00:29:13.960Z,95400.00
2023-05-05T00:30:14.014Z,95402.00
2023-05-05T00:31:14.140Z,95402.00
2023-05-05T00:32:14.204Z,95400.00
2023-05-05T00:33:14.264Z,95402.00
2023-05-05T00:34:14.347Z,95398.00
2023-05-05T00:35:14.439Z,95400.00
2023-05-05T00:36:14.491Z,95400.00
2023-05-05T00:37:14.582Z,95400.00
2023-05-05T00:38:14.639Z,95400.00
2023-05-05T00:39:14.718Z,95398.00
2023-05-05T00:40:14.805Z,95402.00
2023-05-05T00:41:14.933Z,95402.00
2023-05-05T00:42:14.969Z,95404.00
2023-05-05T00:43:15.072Z,95404.00
2023-05-05T00:44:15.114Z,95404.00
2023-05-05T00:45:15.984Z,95406.00
2023-05-05T00:46:15.320Z,95406.00
2023-05-05T00:47:15.343Z,95407.00
2023-05-05T00:48:15.426Z,95407.00
2023-05-05T00:49:15.524Z,95409.00
2023-05-05T00:50:15.570Z,95407.00
2023-05-05T00:51:15.672Z,95406.00
2023-05-05T00:52:15.772Z,95404.00
2023-05-05T00:53:15.820Z,95400.00
2023-05-05T00:54:15.920Z,95400.00
2023-05-05T00:55:15.990Z,95406.00
2023-05-05T00:56:16.101Z,95406.00
2023-05-05T00:57:16.117Z,95406.00
2023-05-05T00:58:16.212Z,95406.00
2023-05-05T00:59:16.308Z,95402.00
2023-05-05T01:00:16.370Z,95400.00
2023-05-05T01:01:16.504Z,95406.00
2023-05-05T01:02:16.522Z,95404.00
2023-05-05T01:03:16.748Z,95404.00
2023-05-05T01:04:16.710Z,95402.00
2023-05-05T01:05:16.778Z,95402.00
2023-05-05T01:06:16.860Z,95404.00
2023-05-05T01:07:16.947Z,95400.00
2023-05-05T01:08:16.995Z,95398.00
2023-05-05T01:09:17.096Z,95400.00
2023-05-05T01:10:20.164Z,95396.00
2023-05-05T01:11:17.243Z,95400.00
2023-05-05T01:12:17.202Z,95398.00
2023-05-05T01:13:17.217Z,95400.00
2023-05-05T01:14:17.254Z,95398.00
2023-05-05T01:15:17.311Z,95398.00
2023-05-05T01:16:17.342Z,95398.00
2023-05-05T01:17:17.396Z,95402.00
2023-05-05T01:18:17.350Z,95400.00
2023-05-05T01:19:17.398Z,95400.00
2023-05-05T01:20:17.397Z,95402.00
2023-05-05T01:21:17.378Z,95400.00
2023-05-05T01:22:17.430Z,95400.00
2023-05-05T01:23:17.430Z,95400.00
2023-05-05T01:24:17.458Z,95400.00
2023-05-05T01:25:17.461Z,95400.00
2023-05-05T01:26:17.457Z,95402.00
2023-05-05T01:27:17.514Z,95404.00
2023-05-05T01:28:17.527Z,95402.00
2023-05-05T01:29:17.551Z,95406.00
2023-05-05T01:30:17.650Z,95406.00
2023-05-05T01:31:17.715Z,95406.00
2023-05-05T01:32:17.693Z,95404.00
2023-05-05T01:33:17.685Z,95406.00
2023-05-05T01:34:17.690Z,95404.00
2023-05-05T01:35:17.815Z,95404.00
2023-05-05T01:36:17.791Z,95406.00
2023-05-05T01:37:17.794Z,95407.00
2023-05-05T01:38:17.807Z,95409.00
2023-05-05T01:39:17.845Z,95411.00
2023-05-05T01:40:17.878Z,95409.00
2023-05-05T01:41:17.926Z,95409.00
2023-05-05T01:42:17.948Z,95409.00
2023-05-05T01:43:17.955Z,95411.00
2023-05-05T01:44:18.013Z,95409.00
2023-05-05T01:45:18.075Z,95409.00
2023-05-05T01:46:18.198Z,95407.00
2023-05-05T01:47:18.201Z,95409.00
2023-05-05T01:48:18.335Z,95413.00
2023-05-05T01:49:18.405Z,95413.00
2023-05-05T01:50:18.440Z,95411.00
2023-05-05T01:51:18.540Z,95411.00
2023-05-05T01:52:18.596Z,95411.00
2023-05-05T01:53:18.658Z,95407.00
2023-05-05T01:54:18.748Z,95407.00
2023-05-05T01:55:18.871Z,95406.00
2023-05-05T01:56:18.958Z,95407.00
2023-05-05T01:57:19.022Z,95409.00
2023-05-05T01:58:19.103Z,95413.00
2023-05-05T01:59:19.175Z,95415.00
2023-05-05T02:00:19.261Z,95417.00
2023-05-05T02:01:19.357Z,95413.00
2023-05-05T02:02:19.460Z,95413.00
2023-05-05T02:03:19.684Z,95419.00
2023-05-05T02:04:19.568Z,95411.00
2023-05-05T02:05:19.707Z,95411.00
2023-05-05T02:06:19.730Z,95409.00
2023-05-05T02:07:19.844Z,95411.00
2023-05-05T02:08:19.958Z,95413.00
2023-05-05T02:09:20.025Z,95415.00
2023-05-05T02:10:20.088Z,95417.00
2023-05-05T02:11:20.181Z,95417.00
2023-05-05T02:12:20.243Z,95417.00
2023-05-05T02:13:20.393Z,95419.00
2023-05-05T02:14:21.557Z,95419.00
2023-05-05T02:15:20.504Z,95421.00
2023-05-05T02:16:20.601Z,95419.00
2023-05-05T02:17:20.690Z,95429.00
2023-05-05T02:18:20.774Z,95421.00
2023-05-05T02:19:20.845Z,95421.00
2023-05-05T02:20:20.903Z,95421.00
2023-05-05T02:21:21.068Z,95421.00
2023-05-05T02:22:21.113Z,95429.00
2023-05-05T02:23:21.138Z,95429.00
2023-05-05T02:24:21.264Z,95431.00
2023-05-05T02:25:21.328Z,95431.00
2023-05-05T02:26:21.435Z,95431.00
2023-05-05T02:27:21.516Z,95429.00
2023-05-05T02:28:21.627Z,95429.00
2023-05-05T02:29:21.660Z,95429.00
2023-05-05T02:30:21.738Z,95433.00
2023-05-05T02:31:21.873Z,95435.00
2023-05-05T02:32:21.969Z,95431.00
2023-05-05T02:33:22.022Z,95429.00
2023-05-05T02:34:22.106Z,95421.00
2023-05-05T02:35:22.170Z,95429.00
2023-05-05T02:36:22.272Z,95429.00
2023-05-05T02:37:22.381Z,95431.00
2023-05-05T02:38:22.437Z,95433.00
2023-05-05T02:39:22.545Z,95435.00
2023-05-05T02:40:22.627Z,95433.00
2023-05-05T02:41:22.713Z,95437.00
2023-05-05T02:42:22.798Z,95441.00
2023-05-05T02:43:22.930Z,95437.00
2023-05-05T02:44:22.942Z,95437.00
2023-05-05T02:45:23.041Z,95437.00
2023-05-05T02:46:23.211Z,95439.00
2023-05-05T02:47:23.244Z,95439.00
2023-05-05T02:48:23.307Z,95435.00
2023-05-05T02:49:23.388Z,95437.00
2023-05-05T02:50:23.476Z,95439.00
2023-05-05T02:51:23.580Z,95439.00
2023-05-05T02:52:23.651Z,95439.00
2023-05-05T02:53:23.743Z,95439.00
2023-05-05T02:54:23.817Z,95441.00
2023-05-05T02:55:23.882Z,95439.00
2023-05-05T02:56:23.970Z,95439.00
2023-05-05T02:57:24.044Z,95439.00
2023-05-05T02:58:24.152Z,95439.00
2023-05-05T02:59:24.241Z,95433.00
2023-05-05T03:00:24.345Z,95437.00
2023-05-05T03:01:24.467Z,95441.00
2023-05-05T03:02:24.544Z,95435.00
2023-05-05T03:03:24.611Z,95437.00
2023-05-05T03:04:24.676Z,95441.00
2023-05-05T03:05:24.763Z,95441.00
2023-05-05T03:06:24.821Z,95443.00
2023-05-05T03:07:24.938Z,95441.00
2023-05-05T03:08:25.012Z,95443.00
2023-05-05T03:09:25.068Z,95441.00
2023-05-05T03:10:25.159Z,95441.00
2023-05-05T03:11:25.264Z,95441.00
2023-05-05T03:12:25.320Z,95439.00
2023-05-05T03:13:25.429Z,95437.00
2023-05-05T03:14:25.467Z,95439.00
2023-05-05T03:15:25.570Z,95439.00
2023-05-05T03:16:25.657Z,95439.00
2023-05-05T03:17:25.819Z,95441.00
2023-05-05T03:18:25.806Z,95441.00
2023-05-05T03:19:25.867Z,95439.00
2023-05-05T03:20:27.654Z,95441.00
2023-05-05T03:21:26.048Z,95439.00
2023-05-05T03:22:26.155Z,95441.00
2023-05-05T03:23:26.196Z,95441.00
2023-05-05T03:24:26.337Z,95441.00
2023-05-05T03:25:26.382Z,95439.00
2023-05-05T03:26:26.484Z,95439.00
2023-05-05T03:27:26.520Z,95439.00
2023-05-05T03:28:26.572Z,95437.00
2023-05-05T03:29:26.687Z,95439.00
2023-05-05T03:30:26.716Z,95439.00
2023-05-05T03:31:26.816Z,95437.00
2023-05-05T03:32:26.894Z,95439.00
2023-05-05T03:33:26.926Z,95439.00
2023-05-05T03:34:26.990Z,95441.00
2023-05-05T03:35:27.074Z,95443.00
2023-05-05T03:36:28.597Z,95441.00
2023-05-05T03:37:27.258Z,95439.00
2023-05-05T03:38:27.359Z,95441.00
2023-05-05T03:39:27.420Z,95441.00
2023-05-05T03:40:40.437Z,95443.00
2023-05-05T03:41:28.549Z,95441.00
2023-05-05T03:42:27.606Z,95443.00
2023-05-05T03:43:27.605Z,95443.00
2023-05-05T03:44:27.613Z,95443.00
2023-05-05T03:45:27.635Z,95443.00
2023-05-05T03:46:27.686Z,95443.00
2023-05-05T03:47:27.719Z,95439.00
2023-05-05T03:48:27.691Z,95441.00
2023-05-05T03:49:27.697Z,95441.00
2023-05-05T03:50:27.745Z,95439.00
2023-05-05T03:51:27.818Z,95435.00
2023-05-05T03:52:27.887Z,95437.00
2023-05-05T03:53:27.997Z,95435.00
2023-05-05T03:54:28.097Z,95437.00
2023-05-05T03:55:28.147Z,95439.00
2023-05-05T03:56:28.222Z,95441.00
2023-05-05T03:57:28.292Z,95439.00
2023-05-05T03:58:28.343Z,95437.00
2023-05-05T03:59:28.424Z,95437.00
2023-05-05T04:00:28.547Z,95437.00
2023-05-05T04:01:28.578Z,95435.00
2023-05-05T04:02:28.769Z,95435.00
2023-05-05T04:03:28.812Z,95437.00
2023-05-05T04:04:28.909Z,95439.00
2023-05-05T04:05:28.875Z,95439.00
2023-05-05T04:06:28.957Z,95439.00
2023-05-05T04:07:29.060Z,95439.00
2023-05-05T04:08:29.142Z,95441.00
2023-05-05T04:09:29.174Z,95443.00
2023-05-05T04:10:29.239Z,95441.00
2023-05-05T04:11:29.326Z,95439.00
2023-05-05T04:12:29.405Z,95439.00
2023-05-05T04:13:29.475Z,95437.00
2023-05-05T04:14:29.523Z,95439.00
2023-05-05T04:15:29.579Z,95437.00
2023-05-05T04:16:29.749Z,95439.00
2023-05-05T04:17:29.741Z,95439.00
2023-05-05T04:18:29.785Z,95439.00
2023-05-05T04:19:29.851Z,95441.00
2023-05-05T04:20:29.925Z,95441.00
2023-05-05T04:21:30.004Z,95443.00
2023-05-05T04:22:30.042Z,95445.00
2023-05-05T04:23:30.106Z,95443.00
2023-05-05T04:24:30.163Z,95443.00
2023-05-05T04:25:30.212Z,95443.00
2023-05-05T04:26:30.278Z,95443.00
2023-05-05T04:27:30.379Z,95441.00
2023-05-05T04:28:30.421Z,95441.00
2023-05-05T04:29:30.440Z,95443.00
2023-05-05T04:30:30.528Z,95443.00
2023-05-05T04:31:30.640Z,95445.00
2023-05-05T04:32:30.639Z,95445.00
2023-05-05T04:33:30.699Z,95447.00
2023-05-05T04:34:30.790Z,95447.00
2023-05-05T04:35:30.887Z,95447.00
2023-05-05T04:36:30.957Z,95449.00
2023-05-05T04:37:31.064Z,95451.00
2023-05-05T04:38:31.127Z,95453.00
2023-05-05T04:39:31.168Z,95453.00
2023-05-05T04:40:31.247Z,95453.00
2023-05-05T04:41:31.607Z,95453.00
2023-05-05T04:42:31.338Z,95453.00
2023-05-05T04:43:31.405Z,95455.00
2023-05-05T04:44:31.471Z,95453.00
2023-05-05T04:45:31.553Z,95455.00
2023-05-05T04:46:31.728Z,95455.00
2023-05-05T04:47:31.724Z,95457.00
2023-05-05T04:48:31.784Z,95457.00
2023-05-05T04:49:31.889Z,95457.00
2023-05-05T04:50:31.941Z,95455.00
2023-05-05T04:51:32.021Z,95455.00
2023-05-05T04:52:32.126Z,95457.00
2023-05-05T04:53:32.199Z,95457.00
2023-05-05T04:54:32.233Z,95457.00
2023-05-05T04:55:32.392Z,95457.00
2023-05-05T04:56:32.452Z,95457.00
2023-05-05T04:57:32.479Z,95460.00
2023-05-05T04:58:32.586Z,95460.00
2023-05-05T04:59:32.686Z,95462.00
2023-05-05T05:00:32.750Z,95466.00
2023-05-05T05:01:33.009Z,95464.00
2023-05-05T05:02:33.065Z,95466.00
2023-05-05T05:03:33.045Z,95466.00
2023-05-05T05:04:33.096Z,95468.00
2023-05-05T05:05:33.157Z,95470.00
2023-05-05T05:06:33.227Z,95470.00
2023-05-05T05:07:33.308Z,95466.00
2023-05-05T05:08:33.416Z,95468.00
2023-05-05T05:09:33.466Z,95470.00
2023-05-05T05:10:33.596Z,95470.00
2023-05-05T05:11:33.617Z,95470.00
2023-05-05T05:12:33.685Z,95472.00
2023-05-05T05:13:33.715Z,95470.00
2023-05-05T05:14:33.808Z,95474.00
2023-05-05T05:15:33.837Z,95474.00
2023-05-05T05:16:34.004Z,95472.00
2023-05-05T05:17:34.068Z,95474.00
2023-05-05T05:18:34.149Z,95472.00
2023-05-05T05:19:34.155Z,95468.00
2023-05-05T05:20:34.248Z,95472.00
2023-05-05T05:21:34.299Z,95468.00
2023-05-05T05:22:34.352Z,95468.00
2023-05-05T05:23:34.489Z,95468.00
2023-05-05T05:24:34.546Z,95468.00
2023-05-05T05:25:34.698Z,95470.00
2023-05-05T05:26:34.741Z,95470.00
2023-05-05T05:27:34.841Z,95468.00
2023-05-05T05:28:34.907Z,95470.00
2023-05-05T05:29:35.021Z,95470.00
2023-05-05T05:30:35.028Z,95468.00
2023-05-05T05:31:35.138Z,95470.00
2023-05-05T05:32:35.162Z,95468.00
2023-05-05T05:33:35.220Z,95472.00
2023-05-05T05:34:35.278Z,95472.00
2023-05-05T05:35:35.344Z,95474.00
2023-05-05T05:36:35.394Z,95468.00
2023-05-05T05:37:35.450Z,95474.00
2023-05-05T05:38:35.533Z,95474.00
2023-05-05T05:39:35.624Z,95472.00
2023-05-05T05:40:35.641Z,95474.00
2023-05-05T05:41:35.707Z,95474.00
2023-05-05T05:42:35.774Z,95472.00
2023-05-05T05:43:35.848Z,95476.00
2023-05-05T05:44:35.941Z,95476.00
2023-05-05T05:45:36.027Z,95472.00
2023-05-05T05:46:36.204Z,95476.00
2023-05-05T05:47:37.128Z,95478.00
2023-05-05T05:48:36.277Z,95476.00
2023-05-05T05:49:36.352Z,95478.00
2023-05-05T05:50:36.427Z,95478.00
2023-05-05T05:51:36.512Z,95484.00
2023-05-05T05:52:36.543Z,95478.00
2023-05-05T05:53:36.633Z,95482.00
2023-05-05T05:54:36.680Z,95480.00
2023-05-05T05:55:36.727Z,95482.00
2023-05-05T05:56:36.797Z,95476.00
2023-05-05T05:57:36.858Z,95478.00
2023-05-05T05:58:36.923Z,95480.00
2023-05-05T05:59:36.970Z,95480.00
2023-05-05T06:00:37.026Z,95484.00
2023-05-05T06:01:37.229Z,95484.00
2023-05-05T06:02:37.175Z,95484.00
2023-05-05T06:03:37.248Z,95486.00
2023-05-05T06:04:37.355Z,95486.00
2023-05-05T06:05:37.525Z,95484.00
2023-05-05T06:06:37.641Z,95486.00
2023-05-05T06:07:37.386Z,95486.00
2023-05-05T06:08:37.405Z,95484.00
2023-05-05T06:09:37.446Z,95484.00
2023-05-05T06:10:37.464Z,95484.00
2023-05-05T06:11:37.629Z,95486.00
2023-05-05T06:12:37.545Z,95482.00
2023-05-05T06:13:37.573Z,95484.00
2023-05-05T06:14:37.620Z,95484.00
2023-05-05T06:15:37.688Z,95482.00
2023-05-05T06:16:37.664Z,95486.00
2023-05-05T06:17:37.824Z,95484.00
2023-05-05T06:18:37.745Z,95482.00
2023-05-05T06:19:37.781Z,95478.00
2023-05-05T06:20:37.798Z,95480.00
2023-05-05T06:21:37.799Z,95476.00
2023-05-05T06:22:37.854Z,95478.00
2023-05-05T06:23:37.865Z,95474.00
2023-05-05T06:24:37.874Z,95474.00
2023-05-05T06:25:37.870Z,95474.00
2023-05-05T06:26:37.889Z,95476.00
2023-05-05T06:27:37.945Z,95472.00
2023-05-05T06:28:37.942Z,95472.00
2023-05-05T06:29:37.980Z,95472.00
2023-05-05T06:30:37.966Z,95472.00
2023-05-05T06:31:38.023Z,95470.00
2023-05-05T06:32:38.034Z,95472.00
2023-05-05T06:33:38.040Z,95470.00
2023-05-05T06:34:38.075Z,95470.00
2023-05-05T06:35:38.095Z,95466.00
2023-05-05T06:36:38.154Z,95468.00
2023-05-05T06:37:38.128Z,95468.00
2023-05-05T06:38:38.172Z,95468.00
2023-05-05T06:39:38.246Z,95464.00
2023-05-05T06:40:38.311Z,95462.00
2023-05-05T06:41:38.354Z,95462.00
2023-05-05T06:42:38.427Z,95460.00
2023-05-05T06:43:38.434Z,95460.00
2023-05-05T06:44:38.486Z,95457.00
2023-05-05T06:45:38.513Z,95451.00
2023-05-05T06:46:38.667Z,95459.00
2023-05-05T06:47:38.663Z,95453.00
2023-05-05T06:48:38.644Z,95455.00
2023-05-05T06:49:38.704Z,95451.00
2023-05-05T06:50:38.733Z,95453.00
2023-05-05T06:51:39.672Z,95453.00
2023-05-05T06:52:38.837Z,95451.00
2023-05-05T06:53:38.853Z,95453.00
2023-05-05T06:54:38.843Z,95445.00
2023-05-05T06:55:38.884Z,95447.00
2023-05-05T06:56:38.890Z,95445.00
2023-05-05T06:57:39.091Z,95449.00
2023-05-05T06:58:38.998Z,95451.00
2023-05-05T06:59:38.958Z,95451.00
2023-05-05T07:00:38.998Z,95451.00
2023-05-05T07:01:39.022Z,95447.00
2023-05-05T07:02:39.119Z,95445.00
2023-05-05T07:03:39.106Z,95449.00
2023-05-05T07:04:39.083Z,95451.00
2023-05-05T07:05:39.105Z,95449.00
2023-05-05T07:06:39.178Z,95449.00
2023-05-05T07:07:39.096Z,95445.00
2023-05-05T07:08:39.124Z,95445.00
2023-05-05T07:09:39.163Z,95439.00
2023-05-05T07:10:39.404Z,95445.00
2023-05-05T07:11:39.679Z,95441.00
2023-05-05T07:12:39.276Z,95439.00
2023-05-05T07:13:39.503Z,95439.00
2023-05-05T07:14:39.293Z,95437.00
2023-05-05T07:15:39.321Z,95437.00
2023-05-05T07:16:39.426Z,95435.00
2023-05-05T07:17:39.407Z,95435.00
2023-05-05T07:18:39.384Z,95431.00
2023-05-05T07:19:39.398Z,95429.00
2023-05-05T07:20:39.438Z,95419.00
2023-05-05T07:21:39.455Z,95419.00
2023-05-05T07:22:39.475Z,95419.00
2023-05-05T07:23:39.457Z,95419.00
2023-05-05T07:24:39.504Z,95413.00
2023-05-05T07:25:39.545Z,95419.00
2023-05-05T07:26:39.557Z,95413.00
2023-05-05T07:27:39.587Z,95409.00
2023-05-05T07:28:39.597Z,95407.00
2023-05-05T07:29:39.786Z,95407.00
2023-05-05T07:30:39.642Z,95411.00
2023-05-05T07:31:39.715Z,95411.00
2023-05-05T07:32:39.710Z,95409.00
2023-05-05T07:33:39.712Z,95406.00
2023-05-05T07:34:39.714Z,95409.00
2023-05-05T07:35:39.747Z,95411.00
2023-05-05T07:36:40.165Z,95409.00
2023-05-05T07:37:39.798Z,95406.00
2023-05-05T07:38:39.859Z,95404.00
2023-05-05T07:39:39.859Z,95404.00
2023-05-05T07:40:39.864Z,95402.00
2023-05-05T07:41:40.159Z,95400.00
2023-05-05T07:42:39.885Z,95398.00
2023-05-05T07:43:40.896Z,95404.00
2023-05-05T07:44:39.935Z,95398.00
2023-05-05T07:45:40.173Z,95398.00
2023-05-05T07:46:39.958Z,95396.00
2023-05-05T07:47:40.049Z,95390.00
2023-05-05T07:48:39.994Z,95390.00
2023-05-05T07:49:40.003Z,95384.00
2023-05-05T07:50:40.057Z,95384.00
2023-05-05T07:51:40.062Z,95382.00
2023-05-05T07:53:40.048Z,95380.00
2023-05-05T07:54:40.076Z,95380.00
2023-05-05T07:55:40.158Z,95380.00
2023-05-05T07:56:40.090Z,95380.00
2023-05-05T07:57:40.107Z,95376.00
2023-05-05T07:58:40.133Z,95374.00
2023-05-05T07:59:40.121Z,95376.00
2023-05-05T08:00:40.136Z,95378.00
2023-05-05T08:01:40.217Z,95372.00
2023-05-05T08:02:40.244Z,95372.00
2023-05-05T08:03:40.275Z,95374.00
2023-05-05T08:04:40.183Z,95372.00
2023-05-05T08:05:40.158Z,95374.00
2023-05-05T08:06:41.136Z,95374.00
2023-05-05T08:07:40.145Z,95376.00
2023-05-05T08:08:40.155Z,95374.00
2023-05-05T08:09:40.200Z,95372.00
2023-05-05T08:10:40.173Z,95372.00
2023-05-05T08:11:40.153Z,95372.00
2023-05-05T08:12:40.276Z,95370.00
2023-05-05T08:13:40.126Z,95368.00
2023-05-05T08:14:40.138Z,95368.00
2023-05-05T08:15:40.193Z,95367.00
2023-05-05T08:16:40.176Z,95365.00
2023-05-05T08:17:40.330Z,95362.00
2023-05-05T08:18:40.165Z,95359.00
2023-05-05T08:19:40.176Z,95360.00
2023-05-05T08:20:40.151Z,95362.00
2023-05-05T08:21:40.151Z,95360.00
2023-05-05T08:22:40.199Z,95360.00
2023-05-05T08:23:40.198Z,95359.00
2023-05-05T08:24:40.192Z,95359.00
2023-05-05T08:25:40.238Z,95357.00
2023-05-05T08:26:40.246Z,95355.00
2023-05-05T08:27:40.230Z,95355.00
2023-05-05T08:28:40.264Z,95355.00
2023-05-05T08:29:40.258Z,95353.00
2023-05-05T08:30:40.260Z,95349.00
2023-05-05T08:31:40.351Z,95349.00
2023-05-05T08:32:40.408Z,95351.00
2023-05-05T08:33:40.516Z,95347.00
2023-05-05T08:34:40.486Z,95349.00
2023-05-05T08:35:40.545Z,95347.00
2023-05-05T08:36:40.592Z,95345.00
2023-05-05T08:37:40.736Z,95339.00
2023-05-05T08:38:40.705Z,95337.00
2023-05-05T08:39:40.786Z,95337.00
2023-05-05T08:40:40.844Z,95335.00
2023-05-05T08:41:40.914Z,95333.00
2023-05-05T08:42:40.989Z,95331.00
2023-05-05T08:43:41.055Z,95331.00
2023-05-05T08:44:41.149Z,95329.00
2023-05-05T08:45:41.184Z,95325.00
2023-05-05T08:46:41.262Z,95325.00
2023-05-05T08:47:41.769Z,95321.00
2023-05-05T08:48:41.416Z,95319.00
2023-05-05T08:49:41.650Z,95317.00
2023-05-05T08:50:41.525Z,95317.00
2023-05-05T08:51:41.541Z,95310.00
2023-05-05T08:52:41.851Z,95310.00
2023-05-05T08:53:41.586Z,95308.00
2023-05-05T08:54:41.640Z,95310.00
2023-05-05T08:55:41.637Z,95310.00
2023-05-05T08:56:41.664Z,95312.00
2023-05-05T08:57:41.692Z,95310.00
2023-05-05T08:58:41.723Z,95310.00
2023-05-05T08:59:41.871Z,95310.00
2023-05-05T09:00:41.901Z,95308.00
2023-05-05T09:01:41.977Z,95310.00
2023-05-05T09:02:42.129Z,95304.00
2023-05-05T09:03:42.349Z,95300.00
2023-05-05T09:04:42.249Z,95300.00
2023-05-05T09:05:42.388Z,95296.00
2023-05-05T09:06:42.363Z,95298.00
2023-05-05T09:07:42.714Z,95298.00
2023-05-05T09:08:42.510Z,95300.00
2023-05-05T09:09:42.580Z,95296.00
2023-05-05T09:10:42.655Z,95294.00
2023-05-05T09:11:42.715Z,95294.00
2023-05-05T09:12:42.858Z,95292.00
2023-05-05T09:13:42.834Z,95292.00
2023-05-05T09:14:42.894Z,95294.00
2023-05-05T09:15:42.941Z,95292.00
2023-05-05T09:16:43.035Z,95288.00
2023-05-05T09:17:43.110Z,95286.00
2023-05-05T09:18:43.093Z,95286.00
2023-05-05T09:19:43.180Z,95284.00
2023-05-05T09:20:43.228Z,95278.00
2023-05-05T09:21:43.306Z,95280.00
2023-05-05T09:22:43.346Z,95278.00
2023-05-05T09:23:43.356Z,95278.00
2023-05-05T09:24:43.427Z,95278.00
2023-05-05T09:25:43.443Z,95274.00
2023-05-05T09:26:43.523Z,95278.00
2023-05-05T09:27:43.744Z,95271.00
2023-05-05T09:28:43.615Z,95271.00
2023-05-05T09:29:43.635Z,95269.00
2023-05-05T09:30:43.703Z,95267.00
2023-05-05T09:31:43.729Z,95267.00
2023-05-05T09:32:43.841Z,95267.00
2023-05-05T09:33:43.783Z,95265.00
2023-05-05T09:34:43.807Z,95263.00
2023-05-05T09:35:43.869Z,95261.00
2023-05-05T09:36:43.910Z,95259.00
2023-05-05T09:37:43.990Z,95259.00
2023-05-05T09:38:43.938Z,95255.00
2023-05-05T09:39:43.992Z,95257.00
2023-05-05T09:40:44.006Z,95257.00
2023-05-05T09:41:44.035Z,95255.00
2023-05-05T09:42:44.209Z,95255.00
2023-05-05T09:43:44.124Z,95253.00
2023-05-05T09:44:44.154Z,95251.00
2023-05-05T09:45:44.175Z,95255.00
2023-05-05T09:46:44.277Z,95251.00
2023-05-05T09:47:44.316Z,95249.00
2023-05-05T09:48:44.364Z,95247.00
2023-05-05T09:49:44.328Z,95243.00
2023-05-05T09:50:44.370Z,95243.00
2023-05-05T09:51:44.385Z,95241.00
2023-05-05T09:52:44.732Z,95241.00
2023-05-05T09:53:44.504Z,95239.00
2023-05-05T09:54:44.470Z,95237.00
2023-05-05T09:55:44.500Z,95237.00
2023-05-05T09:56:44.539Z,95237.00
2023-05-05T09:57:44.731Z,95235.00
2023-05-05T09:58:44.624Z,95237.00
2023-05-05T09:59:44.586Z,95235.00
2023-05-05T10:00:44.570Z,95235.00
2023-05-05T10:01:44.618Z,95235.00
2023-05-05T10:02:44.623Z,95233.00
2023-05-05T10:03:44.628Z,95231.00
2023-05-05T10:04:44.669Z,95231.00
2023-05-05T10:05:44.685Z,95229.00
2023-05-05T10:06:44.750Z,95231.00
2023-05-05T10:07:44.778Z,95227.00
2023-05-05T10:08:44.837Z,95229.00
2023-05-05T10:09:44.938Z,95227.00
2023-05-05T10:10:44.924Z,95224.00
2023-05-05T10:11:44.989Z,95226.00
2023-05-05T10:12:45.049Z,95226.00
2023-05-05T10:13:45.116Z,95227.00
2023-05-05T10:14:45.175Z,95222.00
2023-05-05T10:15:45.313Z,95218.00
2023-05-05T10:16:45.416Z,95216.00
2023-05-05T10:17:57.891Z,95216.00
2023-05-05T10:18:46.434Z,95210.00
2023-05-05T10:19:45.427Z,95212.00
2023-05-05T10:20:45.442Z,95208.00
2023-05-05T10:21:45.534Z,95204.00
2023-05-05T10:22:45.640Z,95206.00
2023-05-05T10:23:45.721Z,95206.00
2023-05-05T10:24:45.773Z,95204.00
2023-05-05T10:25:45.828Z,95202.00
2023-05-05T10:26:45.907Z,95200.00
2023-05-05T10:27:46.051Z,95198.00
2023-05-05T10:28:46.030Z,95196.00
2023-05-05T10:29:46.117Z,95192.00
2023-05-05T10:30:46.214Z,95196.00
2023-05-05T10:31:46.347Z,95190.00
2023-05-05T10:32:59.895Z,95190.00
2023-05-05T10:33:47.415Z,95186.00
2023-05-05T10:34:46.382Z,95184.00
2023-05-05T10:35:46.463Z,95182.00
2023-05-05T10:36:46.552Z,95180.00
2023-05-05T10:37:46.740Z,95179.00
2023-05-05T10:38:46.623Z,95174.00
2023-05-05T10:39:46.668Z,95172.00
2023-05-05T10:40:46.724Z,95165.00
2023-05-05T10:41:46.791Z,95161.00
2023-05-05T10:42:46.772Z,95161.00
2023-05-05T10:43:46.815Z,95159.00
2023-05-05T10:44:46.861Z,95159.00
2023-05-05T10:45:47.012Z,95157.00
2023-05-05T10:46:46.987Z,95157.00
2023-05-05T10:47:47.064Z,95155.00
2023-05-05T10:48:47.152Z,95153.00
2023-05-05T10:49:47.052Z,95151.00
2023-05-05T10:50:47.101Z,95149.00
2023-05-05T10:51:47.148Z,95147.00
2023-05-05T10:52:47.229Z,95147.00
2023-05-05T10:53:47.273Z,95143.00
2023-05-05T10:54:47.319Z,95141.00
2023-05-05T10:55:47.351Z,95141.00
2023-05-05T10:56:47.378Z,95139.00
2023-05-05T10:57:47.440Z,95139.00
2023-05-05T10:58:58.377Z,95137.00
2023-05-05T10:59:48.461Z,95137.00
2023-05-05T11:00:47.510Z,95135.00
2023-05-05T11:01:47.462Z,95131.00
2023-05-05T11:02:47.459Z,95129.00
2023-05-05T11:03:47.467Z,95126.00
2023-05-05T11:04:47.398Z,95126.00
2023-05-05T11:05:47.401Z,95126.00
2023-05-05T11:06:47.411Z,95122.00
2023-05-05T11:07:47.405Z,95124.00
2023-05-05T11:08:47.414Z,95120.00
2023-05-05T11:09:47.448Z,95116.00
2023-05-05T11:10:47.519Z,95118.00
2023-05-05T11:11:47.584Z,95116.00
2023-05-05T11:12:47.674Z,95112.00
2023-05-05T11:13:47.774Z,95112.00
2023-05-05T11:14:47.785Z,95112.00
2023-05-05T11:15:47.813Z,95104.00
2023-05-05T11:16:48.207Z,95100.00
2023-05-05T11:17:48.020Z,95096.00
2023-05-05T11:18:48.001Z,95096.00
2023-05-05T11:19:48.085Z,95092.00
2023-05-05T11:20:48.149Z,95090.00
2023-05-05T11:21:48.193Z,95088.00
2023-05-05T11:22:48.241Z,95086.00
2023-05-05T11:23:48.306Z,95084.00
2023-05-05T11:24:48.362Z,95084.00
2023-05-05T11:25:48.419Z,95082.00
2023-05-05T11:26:48.453Z,95082.00
2023-05-05T11:27:48.512Z,95084.00
2023-05-05T11:28:48.785Z,95080.00
2023-05-05T11:29:50.288Z,95077.00
2023-05-05T11:30:48.688Z,95075.00
2023-05-05T11:31:48.659Z,95075.00
2023-05-05T11:32:48.651Z,95075.00
2023-05-05T11:33:48.780Z,95075.00
2023-05-05T11:34:48.648Z,95073.00
2023-05-05T11:35:48.608Z,95073.00
2023-05-05T11:36:48.666Z,95069.00
2023-05-05T11:37:48.654Z,95069.00
2023-05-05T11:38:48.672Z,95071.00
2023-05-05T11:39:48.651Z,95065.00
2023-05-05T11:40:48.620Z,95063.00
2023-05-05T11:41:48.626Z,95059.00
2023-05-05T11:42:48.629Z,95057.00
2023-05-05T11:43:48.633Z,95055.00
2023-05-05T11:44:48.607Z,95053.00
2023-05-05T11:45:48.781Z,95051.00